Time;durP1;ratioP1;P1;durP2;ratioP2;P2;SDS_P1;SDS_P2;PMS_P1;PMS_P2;Temp;Humidity;BMP_temperature;BMP_pressure;BME280_temperature;BME280_humidity;BME280_pressure;Samples;Min_cycle;Max_cycle;Signal;HPM_P1;HPM_P2
2021/01/12 00:00:22;;;;;;;10.82;2.55;;;7.40;99.90;;;;;;5091103;28;20533;-67
2021/01/12 00:02:49;;;;;;;10.15;2.55;;;7.40;99.90;;;;;;5091226;28;20139;-68
2021/01/12 00:05:16;;;;;;;8.25;2.30;;;7.40;99.90;;;;;;5091545;28;20032;-70
2021/01/12 00:07:42;;;;;;;9.05;1.80;;;7.40;99.90;;;;;;5091655;28;20024;-68
2021/01/12 00:10:08;;;;;;;13.13;2.40;;;7.40;99.90;;;;;;5090954;28;20016;-70
2021/01/12 00:12:34;;;;;;;4.15;2.08;;;7.40;99.90;;;;;;5091610;28;20035;-68
2021/01/12 00:15:00;;;;;;;10.23;3.50;;;7.40;99.90;;;;;;5091791;28;20028;-67
2021/01/12 00:17:26;;;;;;;4.75;2.00;;;7.40;99.90;;;;;;5090895;28;20020;-68
2021/01/12 00:19:51;;;;;;;11.93;2.10;;;7.40;99.90;;;;;;5091655;28;20052;-68
2021/01/12 00:22:18;;;;;;;6.55;1.88;;;7.40;99.90;;;;;;5091101;28;20474;-69
2021/01/12 00:24:45;;;;;;;3.70;1.92;;;7.30;99.90;;;;;;5090440;28;20498;-68
2021/01/12 00:27:12;;;;;;;13.02;2.42;;;7.40;99.90;;;;;;5091661;28;20020;-68
2021/01/12 00:29:38;;;;;;;5.45;1.67;;;7.40;99.90;;;;;;5091350;28;20047;-68
2021/01/12 00:32:04;;;;;;;9.93;2.60;;;7.40;99.90;;;;;;5089969;28;20755;-68
2021/01/12 00:34:32;;;;;;;6.13;2.00;;;7.40;99.90;;;;;;5090504;28;20020;-68
2021/01/12 00:36:57;;;;;;;10.32;2.00;;;7.40;99.90;;;;;;5090476;28;20039;-68
2021/01/12 00:39:23;;;;;;;6.70;2.20;;;7.40;99.90;;;;;;5090573;28;20016;-68
2021/01/12 00:41:52;;;;;;;10.35;2.30;;;7.40;99.90;;;;;;5091252;28;20116;-68
2021/01/12 00:44:18;;;;;;;5.15;2.05;;;7.40;99.90;;;;;;5091001;28;20416;-68
2021/01/12 00:46:44;;;;;;;12.73;2.50;;;7.40;99.90;;;;;;5090821;28;20024;-68
2021/01/12 00:49:16;;;;;;;8.20;2.13;;;7.40;99.90;;;;;;5075033;28;20527;-70
2021/01/12 00:51:42;;;;;;;7.22;2.35;;;7.40;99.90;;;;;;5080083;28;20146;-68
2021/01/12 00:54:24;;;;;;;10.98;2.70;;;7.40;99.90;;;;;;5090597;28;20206;-68
2021/01/12 00:56:52;;;;;;;12.13;2.75;;;7.40;99.90;;;;;;5091333;28;20106;-68
2021/01/12 00:59:18;;;;;;;13.63;3.17;;;7.40;99.90;;;;;;5090053;28;20054;-68
2021/01/12 01:01:44;;;;;;;8.48;2.20;;;7.40;99.90;;;;;;5091242;28;20056;-68
2021/01/12 01:04:14;;;;;;;13.48;2.92;;;7.40;99.90;;;;;;5091049;28;20036;-68
2021/01/12 01:06:41;;;;;;;12.67;4.47;;;7.40;99.90;;;;;;5090526;28;20095;-68
2021/01/12 01:09:07;;;;;;;10.70;3.15;;;7.40;99.90;;;;;;5091207;28;20048;-68
2021/01/12 01:11:32;;;;;;;14.90;3.00;;;7.40;99.90;;;;;;5090683;28;20032;-68
2021/01/12 01:13:58;;;;;;;13.82;3.40;;;7.50;99.90;;;;;;5090331;28;20372;-69
2021/01/12 01:16:31;;;;;;;22.20;3.42;;;7.50;99.90;;;;;;5092574;28;20360;-68
2021/01/12 01:18:57;;;;;;;11.20;3.15;;;7.50;99.90;;;;;;5095184;28;20169;-68
2021/01/12 01:21:22;;;;;;;8.35;2.63;;;7.50;99.90;;;;;;5094296;28;20111;-68
2021/01/12 01:23:48;;;;;;;18.05;2.83;;;7.50;99.90;;;;;;5094986;28;20028;-69
2021/01/12 01:26:19;;;;;;;16.95;4.25;;;7.50;99.90;;;;;;5094752;28;20036;-68
2021/01/12 01:28:44;;;;;;;6.25;2.40;;;7.50;99.90;;;;;;5094413;28;20020;-68
2021/01/12 01:31:10;;;;;;;14.73;3.63;;;7.50;99.90;;;;;;5094789;28;20024;-68
2021/01/12 01:33:36;;;;;;;16.98;3.08;;;7.50;99.90;;;;;;5094433;28;20052;-68
2021/01/12 01:36:01;;;;;;;18.13;3.25;;;7.50;99.90;;;;;;5094952;28;20020;-68
2021/01/12 01:38:27;;;;;;;16.95;3.15;;;7.50;99.90;;;;;;5095925;28;20060;-69
2021/01/12 01:40:59;;;;;;;16.00;3.35;;;7.50;99.90;;;;;;5095191;28;20031;-68
2021/01/12 01:43:24;;;;;;;16.17;4.38;;;7.50;99.90;;;;;;5094418;28;20032;-69
2021/01/12 01:45:53;;;;;;;12.32;2.95;;;7.50;99.90;;;;;;5094646;28;20054;-68
2021/01/12 01:48:20;;;;;;;15.40;3.88;;;7.50;99.90;;;;;;5093308;28;20028;-68
2021/01/12 01:50:46;;;;;;;15.32;3.45;;;7.60;99.90;;;;;;5079782;28;20078;-68
2021/01/12 01:53:12;;;;;;;18.13;2.83;;;7.50;99.90;;;;;;5094294;28;20417;-69
2021/01/12 01:55:39;;;;;;;14.73;3.13;;;7.60;99.90;;;;;;5093254;28;20035;-69
2021/01/12 01:58:06;;;;;;;10.75;3.08;;;7.60;99.90;;;;;;5094311;28;20044;-70
2021/01/12 02:00:36;;;;;;;12.77;2.85;;;7.60;99.90;;;;;;5093883;28;20028;-69
2021/01/12 02:03:02;;;;;;;10.98;2.28;;;7.50;99.90;;;;;;5093337;28;20498;-69
2021/01/12 02:05:33;;;;;;;14.13;3.40;;;7.60;99.90;;;;;;5084126;28;20072;-68
2021/01/12 02:08:05;;;;;;;6.00;2.17;;;7.60;99.90;;;;;;5073894;28;20107;-68
2021/01/12 02:10:35;;;;;;;18.60;2.72;;;7.60;99.90;;;;;;5075955;28;20491;-68
2021/01/12 02:13:03;;;;;;;8.18;4.65;;;7.60;99.90;;;;;;5091077;28;20055;-68
2021/01/12 02:15:29;;;;;;;7.82;1.90;;;7.60;99.90;;;;;;5079308;28;20391;-68
2021/01/12 02:17:56;;;;;;;9.75;2.30;;;7.60;99.90;;;;;;5093482;28;20024;-69
2021/01/12 02:20:27;;;;;;;8.90;1.77;;;7.70;99.90;;;;;;5093645;28;20442;-69
2021/01/12 02:23:06;;;;;;;;;;;7.60;99.90;;;;;;5087208;28;20165;-69
2021/01/12 02:25:34;;;;;;;4.88;1.75;;;7.60;99.90;;;;;;5087393;28;20390;-69
2021/01/12 02:28:02;;;;;;;5.30;1.60;;;7.60;99.90;;;;;;5093961;28;20030;-69
2021/01/12 02:30:27;;;;;;;6.47;1.80;;;7.60;99.90;;;;;;5093292;28;20062;-69
2021/01/12 02:32:54;;;;;;;1.95;1.10;;;7.60;99.90;;;;;;5093159;28;20087;-69
2021/01/12 02:35:21;;;;;;;3.15;1.15;;;7.60;99.90;;;;;;5093067;28;20051;-69
2021/01/12 02:37:47;;;;;;;6.50;1.63;;;7.70;99.90;;;;;;5092657;28;20085;-69
2021/01/12 02:40:13;;;;;;;4.93;1.38;;;7.70;99.90;;;;;;5083618;28;20465;-70
2021/01/12 02:42:42;;;;;;;7.18;1.42;;;7.70;99.90;;;;;;5088587;28;20024;-69
2021/01/12 02:45:08;;;;;;;5.38;2.00;;;7.70;99.90;;;;;;5092641;28;20028;-69
2021/01/12 02:47:35;;;;;;;7.30;1.42;;;7.70;99.90;;;;;;5093017;28;20020;-69
2021/01/12 02:50:03;;;;;;;9.02;1.40;;;7.70;99.90;;;;;;5079258;28;20559;-68
2021/01/12 02:52:29;;;;;;;6.82;2.40;;;7.70;99.90;;;;;;5092256;28;20103;-69
2021/01/12 02:54:54;;;;;;;7.47;1.27;;;7.80;99.90;;;;;;5093307;28;20448;-69
2021/01/12 02:57:20;;;;;;;5.90;1.50;;;7.80;99.90;;;;;;5092587;28;20408;-69
2021/01/12 02:59:45;;;;;;;3.10;1.17;;;7.70;99.90;;;;;;5075793;28;20107;-69
2021/01/12 03:02:11;;;;;;;8.70;1.55;;;7.70;99.90;;;;;;5072892;28;20108;-69
2021/01/12 03:04:36;;;;;;;10.25;2.40;;;7.70;99.90;;;;;;5072268;28;20568;-69
2021/01/12 03:07:02;;;;;;;6.50;1.27;;;7.80;99.90;;;;;;5071844;28;20059;-68
2021/01/12 03:09:27;;;;;;;9.43;3.03;;;7.80;99.90;;;;;;5072467;28;20048;-69
2021/01/12 03:11:53;;;;;;;6.03;1.20;;;7.80;99.90;;;;;;5072614;28;20672;-68
2021/01/12 03:14:18;;;;;;;8.50;1.50;;;7.80;99.90;;;;;;5071635;28;20024;-69
2021/01/12 03:16:44;;;;;;;9.55;2.03;;;7.80;99.90;;;;;;5087829;28;20099;-69
2021/01/12 03:19:10;;;;;;;4.53;1.30;;;7.80;99.90;;;;;;5092814;28;20024;-68
2021/01/12 03:21:35;;;;;;;10.68;3.55;;;7.80;99.90;;;;;;5091806;28;20422;-68
2021/01/12 03:24:01;;;;;;;5.75;1.13;;;7.80;99.90;;;;;;5092123;28;20024;-68
2021/01/12 03:26:26;;;;;;;4.93;1.40;;;7.80;99.90;;;;;;5092598;28;20464;-69
2021/01/12 03:28:52;;;;;;;0.63;0.55;;;7.90;99.90;;;;;;5091979;28;20118;-69
2021/01/12 03:31:17;;;;;;;6.45;1.50;;;7.90;99.90;;;;;;5092382;28;20016;-69
2021/01/12 03:33:43;;;;;;;4.68;1.98;;;7.90;99.90;;;;;;5092817;28;20403;-69
2021/01/12 03:36:09;;;;;;;3.33;0.57;;;7.90;99.90;;;;;;5092035;28;20061;-69
2021/01/12 03:38:34;;;;;;;6.38;1.33;;;7.90;99.90;;;;;;5092349;28;20429;-69
2021/01/12 03:41:00;;;;;;;13.45;1.38;;;7.90;99.90;;;;;;5092374;28;20020;-70
2021/01/12 03:43:25;;;;;;;3.38;1.90;;;8.00;99.90;;;;;;5092181;28;20170;-69
2021/01/12 03:45:51;;;;;;;4.72;1.85;;;8.00;99.90;;;;;;5092426;28;20024;-69
2021/01/12 03:48:17;;;;;;;7.88;1.20;;;8.00;99.90;;;;;;5091500;28;20043;-69
2021/01/12 03:50:43;;;;;;;8.65;1.75;;;8.00;99.90;;;;;;5091966;28;20020;-69
2021/01/12 03:53:09;;;;;;;7.25;1.50;;;8.00;99.90;;;;;;5092134;28;20135;-69
2021/01/12 03:55:34;;;;;;;3.95;1.25;;;8.00;99.90;;;;;;5091328;28;20454;-69
2021/01/12 03:58:00;;;;;;;6.35;1.35;;;8.00;99.90;;;;;;5092026;28;20464;-70
2021/01/12 04:00:25;;;;;;;11.13;1.80;;;8.00;99.90;;;;;;5091770;28;20016;-69
2021/01/12 04:02:51;;;;;;;10.55;1.80;;;8.10;99.90;;;;;;5091389;28;20131;-70
2021/01/12 04:05:18;;;;;;;3.90;0.98;;;8.00;99.90;;;;;;5091848;28;20036;-71
2021/01/12 04:07:44;;;;;;;11.07;1.77;;;8.10;99.90;;;;;;5092108;28;20027;-69
2021/01/12 04:10:11;;;;;;;7.03;1.60;;;8.10;99.90;;;;;;5091126;28;20020;-69
2021/01/12 04:12:36;;;;;;;6.55;1.75;;;8.10;99.90;;;;;;5091094;28;20467;-69
2021/01/12 04:15:04;;;;;;;6.28;1.67;;;8.10;99.90;;;;;;5077216;28;20108;-69
2021/01/12 04:17:29;;;;;;;10.75;1.63;;;8.10;99.90;;;;;;5090675;28;20023;-69
2021/01/12 04:19:55;;;;;;;5.60;2.03;;;8.10;99.90;;;;;;5091324;28;20028;-69
2021/01/12 04:22:20;;;;;;;10.70;2.33;;;8.20;99.90;;;;;;5091157;28;20016;-69
2021/01/12 04:24:45;;;;;;;5.90;1.85;;;8.20;99.90;;;;;;5090653;28;20039;-69
2021/01/12 04:27:11;;;;;;;7.20;1.95;;;8.20;99.90;;;;;;5091562;28;20044;-69
2021/01/12 04:29:36;;;;;;;9.52;1.80;;;8.20;99.90;;;;;;5091490;28;20032;-69
2021/01/12 04:32:02;;;;;;;9.63;2.08;;;8.20;99.90;;;;;;5090880;28;20020;-69
2021/01/12 04:34:28;;;;;;;10.57;2.10;;;8.30;99.90;;;;;;5093977;28;20024;-69
2021/01/12 04:36:53;;;;;;;7.30;1.98;;;8.30;99.90;;;;;;5093304;28;20046;-70
2021/01/12 04:39:19;;;;;;;9.10;1.50;;;8.30;99.90;;;;;;5090370;28;20114;-69
2021/01/12 04:41:44;;;;;;;7.90;2.00;;;8.30;99.90;;;;;;5091108;28;20031;-69
2021/01/12 04:44:10;;;;;;;14.70;2.45;;;8.30;99.90;;;;;;5089946;28;20040;-69
2021/01/12 04:46:35;;;;;;;5.25;1.48;;;8.40;99.90;;;;;;5090712;28;20115;-68
2021/01/12 04:49:01;;;;;;;10.82;2.33;;;8.40;99.90;;;;;;5090615;28;20169;-68
2021/01/12 04:51:28;;;;;;;4.95;1.52;;;8.40;99.90;;;;;;5089067;28;20016;-68
2021/01/12 04:53:53;;;;;;;10.05;2.35;;;8.40;99.90;;;;;;5090847;28;20119;-68
2021/01/12 04:56:21;;;;;;;12.77;1.95;;;8.40;99.90;;;;;;5090535;28;20102;-68
2021/01/12 04:58:49;;;;;;;7.65;1.67;;;8.40;99.90;;;;;;5090177;28;20028;-68
2021/01/12 05:01:19;;;;;;;4.20;1.60;;;8.40;99.90;;;;;;5090107;28;20096;-68
2021/01/12 05:03:52;;;;;;;3.40;1.33;;;8.40;99.90;;;;;;5090567;28;20040;-68
2021/01/12 05:06:20;;;;;;;7.32;2.05;;;8.40;99.90;;;;;;5089823;28;20024;-68
2021/01/12 05:08:54;;;;;;;10.88;2.17;;;8.50;99.90;;;;;;5090971;28;20028;-68
2021/01/12 05:11:23;;;;;;;10.70;2.33;;;8.40;99.90;;;;;;5090534;28;20020;-68
2021/01/12 05:13:56;;;;;;;10.38;2.35;;;8.40;99.90;;;;;;5085108;28;20051;-68
2021/01/12 05:16:25;;;;;;;13.65;2.20;;;8.40;99.90;;;;;;5082284;28;20509;-68
2021/01/12 05:18:53;;;;;;;3.90;1.50;;;8.40;99.90;;;;;;5090680;28;20449;-70
2021/01/12 05:21:19;;;;;;;4.70;1.70;;;8.40;99.90;;;;;;5089791;28;20050;-67
2021/01/12 05:24:05;;;;;;;10.68;2.13;;;8.40;99.90;;;;;;5090557;28;20104;-69
2021/01/12 05:26:35;;;;;;;7.40;1.45;;;8.40;99.90;;;;;;5089500;28;20077;-67
2021/01/12 05:29:03;;;;;;;9.55;2.03;;;8.50;99.90;;;;;;5090364;28;20329;-67
2021/01/12 05:31:29;;;;;;;9.57;1.80;;;8.50;99.90;;;;;;5090306;28;20176;-69
2021/01/12 05:33:56;;;;;;;9.57;1.77;;;8.50;99.90;;;;;;5089223;28;20226;-67
2021/01/12 05:36:21;;;;;;;8.18;1.60;;;8.50;99.90;;;;;;5090145;28;20549;-67
2021/01/12 05:38:48;;;;;;;8.75;2.20;;;8.60;99.90;;;;;;5090132;28;20047;-67
2021/01/12 05:41:14;;;;;;;8.35;2.58;;;8.60;99.90;;;;;;5089385;28;20069;-67
2021/01/12 05:43:44;;;;;;;7.43;1.20;;;8.60;99.90;;;;;;5090571;28;20409;-68
2021/01/12 05:46:16;;;;;;;8.40;1.70;;;8.60;99.90;;;;;;5090286;28;20016;-67
2021/01/12 05:48:46;;;;;;;14.18;2.58;;;8.60;99.90;;;;;;5089549;28;20479;-68
2021/01/12 05:51:13;;;;;;;7.72;1.20;;;8.60;99.90;;;;;;5090089;28;20021;-67
2021/01/12 05:53:45;;;;;;;14.38;3.00;;;8.50;99.90;;;;;;5090163;28;20333;-68
2021/01/12 05:56:21;;;;;;;9.55;1.60;;;8.40;99.90;;;;;;5089833;28;20024;-67
2021/01/12 05:58:51;;;;;;;3.97;1.17;;;8.30;99.90;;;;;;5090418;28;20020;-68
2021/01/12 06:01:43;;;;;;;8.27;1.23;;;8.30;99.90;;;;;;5089882;28;20019;-68
2021/01/12 06:04:10;;;;;;;6.35;1.70;;;8.20;99.90;;;;;;5093507;28;20105;-67
2021/01/12 06:06:41;;;;;;;5.03;1.23;;;8.20;99.90;;;;;;5093465;28;20106;-68
2021/01/12 06:09:08;;;;;;;9.30;1.40;;;8.20;99.90;;;;;;5093336;28;20082;-68
2021/01/12 06:11:35;;;;;;;10.90;1.73;;;8.20;99.90;;;;;;5093347;28;20044;-68
2021/01/12 06:14:07;;;;;;;5.53;0.98;;;8.20;99.90;;;;;;5086890;28;20537;-68
2021/01/12 06:16:35;;;;;;;8.35;1.15;;;8.20;99.90;;;;;;5085900;28;20062;-67
2021/01/12 06:19:12;;;;;;;9.95;1.17;;;8.20;99.90;;;;;;5093419;28;20020;-68
2021/01/12 06:21:53;;;;;;;15.48;1.50;;;8.20;99.90;;;;;;5093680;28;20031;-68
2021/01/12 06:24:40;;;;;;;6.07;1.10;;;8.20;99.90;;;;;;5079683;28;20024;-69
2021/01/12 06:27:17;;;;;;;4.25;1.00;;;8.10;99.90;;;;;;5093090;28;20372;-68
2021/01/12 06:29:47;;;;;;;4.05;0.98;;;8.10;99.90;;;;;;5093627;28;20046;-68
2021/01/12 06:32:20;;;;;;;7.30;1.20;;;8.10;99.90;;;;;;5091814;28;20383;-68
2021/01/12 06:34:48;;;;;;;5.80;0.90;;;8.10;99.90;;;;;;5073197;28;20106;-69
2021/01/12 06:37:15;;;;;;;6.53;1.17;;;8.10;99.90;;;;;;5071306;28;20021;-69
2021/01/12 06:39:42;;;;;;;16.20;1.85;;;8.10;99.90;;;;;;5078814;28;20021;-68
2021/01/12 06:42:12;;;;;;;7.80;0.77;;;8.10;99.90;;;;;;5072082;28;20021;-68
2021/01/12 06:44:39;;;;;;;5.72;0.88;;;8.00;99.90;;;;;;5072700;28;20076;-69
2021/01/12 06:47:07;;;;;;;7.03;0.75;;;8.10;99.90;;;;;;5073565;28;20113;-69
2021/01/12 06:49:33;;;;;;;3.95;1.00;;;8.00;99.90;;;;;;5071858;28;20059;-68
2021/01/12 06:52:13;;;;;;;3.35;0.80;;;8.00;99.90;;;;;;5071147;28;20066;-68
2021/01/12 06:54:42;;;;;;;9.80;1.15;;;7.90;99.90;;;;;;5074459;28;20022;-68
2021/01/12 06:57:13;;;;;;;5.00;1.00;;;7.90;99.90;;;;;;5074644;28;20020;-68
2021/01/12 06:59:44;;;;;;;3.47;0.60;;;7.80;99.90;;;;;;5076111;28;20039;-67
2021/01/12 07:02:30;;;;;;;3.60;0.68;;;7.70;99.90;;;;;;5071853;28;20017;-67
2021/01/12 07:05:06;;;;;;;1.50;0.65;;;7.70;99.90;;;;;;5072345;28;20443;-69
2021/01/12 07:07:52;;;;;;;1.73;0.70;;;7.60;99.90;;;;;;5082943;28;20024;-67
2021/01/12 07:10:20;;;;;;;1.17;0.45;;;7.50;99.90;;;;;;5087339;28;20103;-69
2021/01/12 07:12:47;;;;;;;6.05;1.17;;;7.40;99.90;;;;;;5089409;28;20039;-68
2021/01/12 07:15:17;;;;;;;2.10;0.75;;;7.30;99.90;;;;;;5079008;28;20020;-69
2021/01/12 07:17:43;;;;;;;;;;;7.40;99.90;;;;;;5083294;28;20035;-68
2021/01/12 07:20:21;;;;;;;9.90;2.85;;;7.30;99.90;;;;;;5088114;28;19908;-69
2021/01/12 07:22:54;;;;;;;6.93;2.10;;;7.30;99.90;;;;;;5089309;28;20024;-67
2021/01/12 07:25:25;;;;;;;3.78;1.30;;;7.20;99.90;;;;;;5089644;28;20082;-69
2021/01/12 07:28:15;;;;;;;4.45;0.70;;;7.20;99.90;;;;;;5084513;28;20043;-69
2021/01/12 07:30:58;;;;;;;6.75;0.88;;;7.20;99.90;;;;;;5083149;28;20026;-69
2021/01/12 07:33:28;;;;;;;2.85;1.00;;;7.20;99.90;;;;;;5085966;28;20044;-68
2021/01/12 07:35:55;;;;;;;4.57;1.00;;;7.20;99.90;;;;;;5086991;28;20555;-67
2021/01/12 07:38:23;;;;;;;5.25;0.75;;;7.20;99.90;;;;;;5085614;28;20089;-67
2021/01/12 07:40:49;;;;;;;6.75;1.38;;;7.30;99.90;;;;;;5089074;28;20052;-67
2021/01/12 07:43:17;;;;;;;4.53;1.60;;;7.30;99.90;;;;;;5089747;28;20039;-67
2021/01/12 07:45:44;;;;;;;4.53;1.73;;;7.40;99.90;;;;;;5088387;28;20024;-67
2021/01/12 07:48:10;;;;;;;10.98;2.13;;;7.40;99.90;;;;;;5082775;28;20484;-68
2021/01/12 07:50:36;;;;;;;9.98;3.33;;;7.50;99.90;;;;;;5082330;28;20123;-68
2021/01/12 07:53:05;;;;;;;5.13;2.10;;;7.50;99.90;;;;;;5080353;28;20032;-68
2021/01/12 07:55:30;;;;;;;10.65;3.33;;;7.50;99.90;;;;;;5089258;28;20109;-68
2021/01/12 07:57:57;;;;;;;18.25;5.05;;;7.40;99.90;;;;;;5078879;28;20479;-68
2021/01/12 08:00:23;;;;;;;10.18;3.80;;;7.50;99.90;;;;;;5086042;28;20429;-68
2021/01/12 08:02:51;;;;;;;5.82;2.63;;;7.50;99.90;;;;;;5088946;28;20023;-69
2021/01/12 08:05:24;;;;;;;13.32;4.57;;;7.40;99.90;;;;;;5088628;28;20093;-68
2021/01/12 08:07:50;;;;;;;8.30;5.60;;;7.40;99.90;;;;;;5090626;28;20083;-69
2021/01/12 08:10:15;;;;;;;6.70;3.85;;;7.30;99.90;;;;;;5089984;28;20024;-68
2021/01/12 08:12:42;;;;;;;6.18;1.20;;;7.40;99.90;;;;;;5090972;28;20379;-68
2021/01/12 08:15:13;;;;;;;8.02;2.50;;;7.30;99.90;;;;;;5083636;28;20119;-69
2021/01/12 08:17:47;;;;;;;11.98;4.35;;;7.30;99.90;;;;;;5090084;28;20027;-68
2021/01/12 08:20:14;;;;;;;8.30;4.28;;;7.30;99.90;;;;;;5090415;28;20525;-68
2021/01/12 08:22:40;;;;;;;5.88;4.07;;;7.30;99.90;;;;;;5089972;28;20345;-68
2021/01/12 08:25:07;;;;;;;8.85;4.07;;;7.20;99.90;;;;;;5090508;28;20088;-68
2021/01/12 08:27:33;;;;;;;7.32;3.60;;;7.30;99.90;;;;;;5079747;28;20881;-67
2021/01/12 08:30:05;;;;;;;5.07;3.78;;;7.20;99.90;;;;;;5084524;28;20029;-67
2021/01/12 08:32:33;;;;;;;7.50;4.00;;;7.20;99.90;;;;;;5077956;28;20157;-67
2021/01/12 08:35:07;;;;;;;16.80;4.93;;;7.10;99.90;;;;;;5073854;28;20048;-68
2021/01/12 08:37:40;;;;;;;13.32;5.55;;;7.10;99.90;;;;;;5080576;28;20032;-68
2021/01/12 08:40:08;;;;;;;11.57;5.68;;;7.10;99.90;;;;;;5071368;28;20016;-68
2021/01/12 08:42:38;;;;;;;13.05;4.90;;;7.00;99.90;;;;;;5071204;28;20063;-67
2021/01/12 08:45:14;;;;;;;8.00;3.07;;;7.00;99.90;;;;;;5070942;28;20025;-66
2021/01/12 08:47:40;;;;;;;10.75;3.97;;;6.90;99.90;;;;;;5071495;28;20032;-68
2021/01/12 08:50:08;;;;;;;7.25;2.28;;;6.90;99.90;;;;;;5088984;28;20016;-67
2021/01/12 08:52:36;;;;;;;10.43;5.80;;;6.90;99.90;;;;;;5091043;28;20031;-67
2021/01/12 08:55:02;;;;;;;13.60;6.32;;;6.90;99.90;;;;;;5091505;28;20058;-67
2021/01/12 08:57:28;;;;;;;12.57;4.57;;;6.90;99.90;;;;;;5090950;28;20051;-67
2021/01/12 08:59:53;;;;;;;8.10;2.50;;;6.90;99.90;;;;;;5092192;28;20016;-68
2021/01/12 09:02:20;;;;;;;6.25;2.22;;;6.90;99.90;;;;;;5092552;28;20454;-68
2021/01/12 09:05:02;;;;;;;7.93;1.95;;;6.80;99.90;;;;;;5092857;28;20039;-69
2021/01/12 09:07:29;;;;;;;2.13;1.50;;;6.80;99.90;;;;;;5088441;28;20052;-68
2021/01/12 09:09:54;;;;;;;7.35;1.95;;;6.80;99.90;;;;;;5071476;28;20476;-69
2021/01/12 09:12:23;;;;;;;7.15;1.80;;;6.80;99.90;;;;;;5089710;28;20027;-68
2021/01/12 09:14:50;;;;;;;4.13;1.40;;;6.80;99.90;;;;;;5079284;28;20024;-68
2021/01/12 09:17:20;;;;;;;3.80;1.35;;;6.60;99.90;;;;;;5087944;28;20063;-67
2021/01/12 09:19:53;;;;;;;6.75;1.20;;;6.60;99.90;;;;;;5073248;28;20040;-68
2021/01/12 09:22:19;;;;;;;7.53;1.73;;;6.50;99.90;;;;;;5094688;28;20025;-67
2021/01/12 09:24:47;;;;;;;8.77;1.10;;;6.50;99.90;;;;;;5071324;28;20070;-68
2021/01/12 09:27:22;;;;;;;7.95;0.60;;;6.50;99.90;;;;;;5086813;28;20108;-69
2021/01/12 09:29:48;;;;;;;2.97;0.98;;;6.50;99.90;;;;;;5073736;28;20031;-69
2021/01/12 09:32:28;;;;;;;3.30;0.85;;;6.50;99.90;;;;;;5071562;28;20024;-69
2021/01/12 09:34:54;;;;;;;3.60;0.68;;;6.50;99.90;;;;;;5075593;28;20036;-68
2021/01/12 09:37:20;;;;;;;1.70;0.52;;;6.60;99.90;;;;;;5073455;28;20025;-68
2021/01/12 09:39:52;;;;;;;13.07;1.38;;;6.60;99.90;;;;;;5083368;28;20067;-69
2021/01/12 09:42:19;;;;;;;1.80;0.80;;;6.70;99.90;;;;;;5073942;28;20127;-67
2021/01/12 09:44:45;;;;;;;6.20;0.90;;;6.70;99.90;;;;;;5081998;28;20040;-67
2021/01/12 09:47:10;;;;;;;3.50;0.98;;;6.70;99.90;;;;;;5077662;28;20069;-67
2021/01/12 09:49:36;;;;;;;11.25;0.95;;;6.80;99.90;;;;;;5078395;28;20024;-68
2021/01/12 09:52:01;;;;;;;7.25;1.30;;;6.80;99.90;;;;;;5085124;28;20036;-68
2021/01/12 09:54:27;;;;;;;5.18;0.88;;;6.80;99.90;;;;;;5073797;28;20029;-68
2021/01/12 09:56:52;;;;;;;3.70;0.70;;;6.80;99.90;;;;;;5087920;28;20434;-68
2021/01/12 09:59:18;;;;;;;4.05;0.80;;;6.70;99.90;;;;;;5092562;28;20357;-68
2021/01/12 10:01:43;;;;;;;7.35;0.80;;;6.70;99.90;;;;;;5092055;28;20050;-67
2021/01/12 10:04:09;;;;;;;5.05;0.98;;;6.60;99.90;;;;;;5092785;28;20032;-68
2021/01/12 10:06:34;;;;;;;6.72;1.02;;;6.60;99.90;;;;;;5074261;28;20028;-68
2021/01/12 10:09:00;;;;;;;6.53;0.98;;;6.50;99.90;;;;;;5087638;28;20472;-68
2021/01/12 10:11:28;;;;;;;5.55;0.82;;;6.50;99.90;;;;;;5079689;28;20047;-69
2021/01/12 10:13:53;;;;;;;4.70;1.23;;;6.40;99.90;;;;;;5079756;28;20098;-68
2021/01/12 10:16:24;;;;;;;13.85;0.85;;;6.40;99.90;;;;;;5091543;28;20100;-68
2021/01/12 10:18:49;;;;;;;5.25;0.52;;;6.40;99.90;;;;;;5092885;28;20031;-68
2021/01/12 10:21:16;;;;;;;3.67;0.60;;;6.40;99.90;;;;;;5092492;28;20032;-68
2021/01/12 10:23:43;;;;;;;2.10;0.82;;;6.40;99.90;;;;;;5091601;28;20043;-69
2021/01/12 10:26:21;;;;;;;12.50;2.90;;;6.40;99.90;;;;;;5092479;28;20522;-70
2021/01/12 10:28:47;;;;;;;29.98;8.48;;;6.30;99.90;;;;;;5089551;28;20112;-69
2021/01/12 10:31:14;;;;;;;20.92;4.28;;;6.30;99.90;;;;;;5073414;28;20013;-67
2021/01/12 10:33:41;;;;;;;39.30;9.52;;;6.30;99.90;;;;;;5073559;28;20048;-69
2021/01/12 10:36:07;;;;;;;39.40;7.53;;;6.40;99.90;;;;;;5085605;28;20125;-68
2021/01/12 10:38:33;;;;;;;15.15;3.85;;;6.40;99.90;;;;;;5073243;28;20043;-67
2021/01/12 10:40:58;;;;;;;7.20;1.85;;;6.30;99.90;;;;;;5075932;28;20021;-68
2021/01/12 10:43:25;;;;;;;9.30;1.75;;;6.30;99.90;;;;;;5081441;28;20063;-69
2021/01/12 10:45:51;;;;;;;4.97;2.08;;;6.30;99.90;;;;;;5073757;28;20127;-69
2021/01/12 10:48:17;;;;;;;6.88;1.75;;;6.20;99.90;;;;;;5072234;28;20017;-68
2021/01/12 10:50:42;;;;;;;4.28;0.93;;;6.20;99.90;;;;;;5072722;28;20032;-68
2021/01/12 10:53:08;;;;;;;5.70;1.10;;;6.20;99.90;;;;;;5073098;28;20039;-68
2021/01/12 10:55:34;;;;;;;10.70;2.63;;;6.20;99.90;;;;;;5073130;28;20074;-69
2021/01/12 10:57:59;;;;;;;3.67;1.73;;;6.20;99.90;;;;;;5072050;28;20052;-69
2021/01/12 11:00:25;;;;;;;8.02;1.92;;;6.20;99.90;;;;;;5074324;28;20142;-68
2021/01/12 11:02:52;;;;;;;5.75;0.57;;;6.20;99.90;;;;;;5088320;28;20024;-68
2021/01/12 11:05:18;;;;;;;11.18;1.23;;;6.30;99.90;;;;;;5086903;28;20047;-69
2021/01/12 11:07:45;;;;;;;12.45;1.05;;;6.30;99.90;;;;;;5077959;28;20059;-68
2021/01/12 11:10:11;;;;;;;6.82;1.00;;;6.40;99.90;;;;;;5073199;28;20029;-69
2021/01/12 11:12:37;;;;;;;5.22;0.88;;;6.40;99.90;;;;;;5078853;28;20024;-69
2021/01/12 11:15:04;;;;;;;7.65;1.20;;;6.40;99.90;;;;;;5073288;28;20446;-68
2021/01/12 11:17:30;;;;;;;4.70;1.30;;;6.40;99.90;;;;;;5083764;28;20024;-68
2021/01/12 11:19:56;;;;;;;6.10;0.88;;;6.40;99.90;;;;;;5091981;28;20541;-68
2021/01/12 11:22:27;;;;;;;14.45;1.25;;;6.50;99.90;;;;;;5083290;28;20025;-69
2021/01/12 11:25:01;;;;;;;7.80;1.15;;;6.60;99.90;;;;;;5072271;28;20086;-68
2021/01/12 11:27:31;;;;;;;10.27;0.90;;;6.50;99.90;;;;;;5071922;28;20031;-69
2021/01/12 11:29:57;;;;;;;13.82;3.05;;;6.60;99.90;;;;;;5072560;28;20081;-68
2021/01/12 11:32:23;;;;;;;13.57;1.13;;;6.50;99.90;;;;;;5071220;28;20376;-68
2021/01/12 11:34:48;;;;;;;8.45;1.00;;;6.50;99.90;;;;;;5080601;28;20047;-68
2021/01/12 11:37:15;;;;;;;5.90;0.80;;;6.50;99.90;;;;;;5076019;28;20404;-69
2021/01/12 11:39:41;;;;;;;3.20;0.77;;;6.50;99.90;;;;;;5071073;28;20056;-68
2021/01/12 11:42:14;;;;;;;5.82;0.82;;;6.50;99.90;;;;;;5072282;28;20098;-69
2021/01/12 11:44:41;;;;;;;12.80;1.45;;;6.60;99.90;;;;;;5079341;28;20040;-69
2021/01/12 11:47:07;;;;;;;12.98;1.10;;;6.50;99.90;;;;;;5077521;28;20545;-69
2021/01/12 11:49:33;;;;;;;5.50;1.50;;;6.40;99.90;;;;;;5080763;28;20464;-69
2021/01/12 11:52:02;;;;;;;10.52;0.80;;;6.40;99.90;;;;;;5081333;28;20103;-69
2021/01/12 11:54:28;;;;;;;5.72;0.90;;;6.30;99.90;;;;;;5081280;28;20042;-69
2021/01/12 11:56:56;;;;;;;6.75;0.77;;;6.30;99.90;;;;;;5083117;28;20463;-69
2021/01/12 11:59:26;;;;;;;11.98;1.05;;;6.30;99.90;;;;;;5081406;28;20352;-69
2021/01/12 12:01:55;;;;;;;16.25;1.42;;;6.40;99.90;;;;;;5078281;28;20019;-68
2021/01/12 12:04:25;;;;;;;7.60;0.52;;;6.40;99.90;;;;;;5079460;28;20036;-69
2021/01/12 12:06:52;;;;;;;5.80;0.90;;;6.60;99.90;;;;;;5080092;28;20012;-69
2021/01/12 12:09:19;;;;;;;9.73;1.02;;;6.60;99.90;;;;;;5079978;28;20059;-69
2021/01/12 12:11:45;;;;;;;9.35;0.75;;;6.70;99.90;;;;;;5081441;28;20028;-69
2021/01/12 12:14:12;;;;;;;70.68;18.40;;;6.90;99.90;;;;;;5084329;28;20083;-68
2021/01/12 12:16:41;;;;;;;38.47;8.00;;;7.00;99.90;;;;;;5079017;28;20024;-68
2021/01/12 12:19:07;;;;;;;74.05;18.08;;;7.20;99.90;;;;;;5082819;28;20021;-69
2021/01/12 12:21:35;;;;;;;77.00;17.98;;;7.20;99.90;;;;;;5079821;28;20399;-68
2021/01/12 12:24:01;;;;;;;11.60;2.15;;;7.20;99.90;;;;;;5080046;28;20081;-69
2021/01/12 12:26:27;;;;;;;9.35;1.40;;;7.20;99.90;;;;;;5080303;28;20016;-68
2021/01/12 12:28:52;;;;;;;7.45;0.60;;;7.20;99.90;;;;;;5078626;28;20551;-68
2021/01/12 12:31:18;;;;;;;9.75;0.98;;;7.00;99.90;;;;;;5081881;28;20043;-68
2021/01/12 12:33:45;;;;;;;4.68;1.13;;;6.70;99.90;;;;;;5081686;28;20374;-68
2021/01/12 12:36:12;;;;;;;8.80;1.55;;;6.60;99.90;;;;;;5079270;28;20472;-69
2021/01/12 12:38:40;;;;;;;16.85;2.75;;;6.40;99.90;;;;;;5080649;28;20071;-68
2021/01/12 12:41:11;;;;;;;12.02;1.30;;;6.20;99.90;;;;;;5080055;28;20028;-68
2021/01/12 12:43:37;;;;;;;7.13;0.77;;;6.10;99.90;;;;;;5081496;28;20051;-68
2021/01/12 12:46:03;;;;;;;5.60;1.02;;;6.00;99.90;;;;;;5081003;28;20409;-69
2021/01/12 12:48:28;;;;;;;10.65;1.38;;;6.00;99.90;;;;;;5078970;28;20029;-69
2021/01/12 12:50:54;;;;;;;9.80;1.75;;;6.10;99.90;;;;;;5076187;28;20036;-70
2021/01/12 12:53:20;;;;;;;6.10;1.10;;;6.20;99.90;;;;;;5083690;28;20457;-68
2021/01/12 12:55:46;;;;;;;7.45;1.48;;;6.30;99.90;;;;;;5093863;28;20026;-70
2021/01/12 12:58:12;;;;;;;8.27;1.10;;;6.50;99.90;;;;;;5083979;28;20025;-69